sensor_id;sensor_type;location;lat;lon;timestamp;P1;durP1;ratioP1;P2;durP2;ratioP2
23543;SDS011;11950;51.230;4.012;2022-12-07T00:01:15;3.65;;;2.20;;
23543;SDS011;11950;51.230;4.012;2022-12-07T00:03:44;2.50;;;2.30;;
23543;SDS011;11950;51.230;4.012;2022-12-07T00:06:12;2.30;;;2.03;;
23543;SDS011;11950;51.230;4.012;2022-12-07T00:08:40;1.95;;;1.80;;
23543;SDS011;11950;51.230;4.012;2022-12-07T00:11:25;3.05;;;2.15;;
23543;SDS011;11950;51.230;4.012;2022-12-07T00:13:53;2.85;;;2.28;;
23543;SDS011;11950;51.230;4.012;2022-12-07T00:16:22;3.90;;;2.00;;
23543;SDS011;11950;51.230;4.012;2022-12-07T00:18:49;2.50;;;2.05;;
23543;SDS011;11950;51.230;4.012;2022-12-07T00:21:17;2.33;;;2.05;;
23543;SDS011;11950;51.230;4.012;2022-12-07T00:23:45;1.95;;;1.60;;
23543;SDS011;11950;51.230;4.012;2022-12-07T00:26:14;2.78;;;1.90;;
23543;SDS011;11950;51.230;4.012;2022-12-07T00:28:49;2.92;;;1.70;;
23543;SDS011;11950;51.230;4.012;2022-12-07T00:31:20;3.78;;;2.55;;
23543;SDS011;11950;51.230;4.012;2022-12-07T00:33:48;4.95;;;2.10;;
23543;SDS011;11950;51.230;4.012;2022-12-07T00:36:17;3.10;;;1.77;;
23543;SDS011;11950;51.230;4.012;2022-12-07T00:38:45;2.85;;;2.05;;
23543;SDS011;11950;51.230;4.012;2022-12-07T00:41:13;5.75;;;2.30;;
23543;SDS011;11950;51.230;4.012;2022-12-07T00:43:45;3.78;;;2.25;;
23543;SDS011;11950;51.230;4.012;2022-12-07T00:46:12;6.70;;;2.63;;
23543;SDS011;11950;51.230;4.012;2022-12-07T00:48:39;2.35;;;1.98;;
23543;SDS011;11950;51.230;4.012;2022-12-07T00:51:06;3.88;;;1.70;;
23543;SDS011;11950;51.230;4.012;2022-12-07T00:53:36;4.50;;;2.13;;
23543;SDS011;11950;51.230;4.012;2022-12-07T00:56:13;3.00;;;1.73;;
23543;SDS011;11950;51.230;4.012;2022-12-07T00:58:41;3.10;;;1.67;;
23543;SDS011;11950;51.230;4.012;2022-12-07T01:01:08;2.42;;;1.98;;
23543;SDS011;11950;51.230;4.012;2022-12-07T01:03:35;5.30;;;2.00;;
23543;SDS011;11950;51.230;4.012;2022-12-07T01:06:03;6.30;;;1.88;;
23543;SDS011;11950;51.230;4.012;2022-12-07T01:08:29;2.90;;;1.77;;
23543;SDS011;11950;51.230;4.012;2022-12-07T01:11:03;3.65;;;1.90;;
23543;SDS011;11950;51.230;4.012;2022-12-07T01:13:32;2.50;;;1.70;;
23543;SDS011;11950;51.230;4.012;2022-12-07T01:16:00;2.95;;;1.77;;
23543;SDS011;11950;51.230;4.012;2022-12-07T01:18:29;5.35;;;1.92;;
23543;SDS011;11950;51.230;4.012;2022-12-07T01:21:00;3.60;;;1.42;;
23543;SDS011;11950;51.230;4.012;2022-12-07T01:23:30;2.33;;;1.60;;
23543;SDS011;11950;51.230;4.012;2022-12-07T01:25:57;3.00;;;1.60;;
23543;SDS011;11950;51.230;4.012;2022-12-07T01:28:25;3.20;;;1.45;;
23543;SDS011;11950;51.230;4.012;2022-12-07T01:30:58;2.60;;;1.40;;
23543;SDS011;11950;51.230;4.012;2022-12-07T01:33:26;2.58;;;1.10;;
23543;SDS011;11950;51.230;4.012;2022-12-07T01:35:54;3.08;;;1.45;;
23543;SDS011;11950;51.230;4.012;2022-12-07T01:38:25;3.85;;;1.52;;
23543;SDS011;11950;51.230;4.012;2022-12-07T01:40:55;4.30;;;1.48;;
23543;SDS011;11950;51.230;4.012;2022-12-07T01:43:22;3.13;;;1.10;;
23543;SDS011;11950;51.230;4.012;2022-12-07T01:45:50;1.65;;;1.00;;
23543;SDS011;11950;51.230;4.012;2022-12-07T01:48:17;2.17;;;1.17;;
23543;SDS011;11950;51.230;4.012;2022-12-07T01:50:48;2.42;;;1.40;;
23543;SDS011;11950;51.230;4.012;2022-12-07T01:53:16;2.03;;;1.30;;
23543;SDS011;11950;51.230;4.012;2022-12-07T01:55:44;3.90;;;1.30;;
23543;SDS011;11950;51.230;4.012;2022-12-07T01:58:13;3.28;;;1.25;;
23543;SDS011;11950;51.230;4.012;2022-12-07T02:00:42;4.57;;;1.58;;
23543;SDS011;11950;51.230;4.012;2022-12-07T02:05:35;3.90;;;1.50;;
23543;SDS011;11950;51.230;4.012;2022-12-07T02:08:04;2.80;;;1.13;;
23543;SDS011;11950;51.230;4.012;2022-12-07T02:10:31;3.75;;;1.20;;
23543;SDS011;11950;51.230;4.012;2022-12-07T02:13:04;2.95;;;1.00;;
23543;SDS011;11950;51.230;4.012;2022-12-07T02:22:04;2.47;;;1.05;;
23543;SDS011;11950;51.230;4.012;2022-12-07T02:24:06;3.65;;;1.15;;
23543;SDS011;11950;51.230;4.012;2022-12-07T02:29:38;3.42;;;1.00;;
23543;SDS011;11950;51.230;4.012;2022-12-07T02:32:24;3.08;;;1.08;;
23543;SDS011;11950;51.230;4.012;2022-12-07T02:34:58;3.58;;;1.00;;
23543;SDS011;11950;51.230;4.012;2022-12-07T02:37:38;3.78;;;0.90;;
23543;SDS011;11950;51.230;4.012;2022-12-07T02:40:14;2.75;;;0.80;;
23543;SDS011;11950;51.230;4.012;2022-12-07T02:42:50;1.00;;;0.90;;
23543;SDS011;11950;51.230;4.012;2022-12-07T02:45:21;1.98;;;1.00;;
23543;SDS011;11950;51.230;4.012;2022-12-07T02:47:51;2.92;;;0.98;;
23543;SDS011;11950;51.230;4.012;2022-12-07T02:50:20;3.30;;;0.85;;
23543;SDS011;11950;51.230;4.012;2022-12-07T02:52:47;1.60;;;1.00;;
23543;SDS011;11950;51.230;4.012;2022-12-07T02:55:14;1.90;;;1.00;;
23543;SDS011;11950;51.230;4.012;2022-12-07T02:57:55;2.90;;;0.80;;
23543;SDS011;11950;51.230;4.012;2022-12-07T03:00:26;2.28;;;0.70;;
23543;SDS011;11950;51.230;4.012;2022-12-07T03:13:19;6.32;;;1.20;;
23543;SDS011;11950;51.230;4.012;2022-12-07T03:18:46;3.45;;;0.80;;
23543;SDS011;11950;51.230;4.012;2022-12-07T03:21:20;2.38;;;0.90;;
23543;SDS011;11950;51.230;4.012;2022-12-07T03:24:06;1.55;;;0.80;;
23543;SDS011;11950;51.230;4.012;2022-12-07T03:26:41;1.70;;;0.90;;
23543;SDS011;11950;51.230;4.012;2022-12-07T03:29:15;2.00;;;0.80;;
23543;SDS011;11950;51.230;4.012;2022-12-07T03:31:55;4.30;;;1.20;;
23543;SDS011;11950;51.230;4.012;2022-12-07T03:34:31;2.15;;;0.90;;
23543;SDS011;11950;51.230;4.012;2022-12-07T03:37:03;2.67;;;1.00;;
23543;SDS011;11950;51.230;4.012;2022-12-07T03:39:36;4.05;;;1.10;;
23543;SDS011;11950;51.230;4.012;2022-12-07T03:42:10;1.90;;;1.00;;
23543;SDS011;11950;51.230;4.012;2022-12-07T03:44:38;4.78;;;1.45;;
23543;SDS011;11950;51.230;4.012;2022-12-07T03:47:12;3.45;;;1.00;;
23543;SDS011;11950;51.230;4.012;2022-12-07T03:57:29;1.92;;;1.10;;
23543;SDS011;11950;51.230;4.012;2022-12-07T03:59:58;2.40;;;1.00;;
23543;SDS011;11950;51.230;4.012;2022-12-07T04:02:26;2.75;;;1.17;;
23543;SDS011;11950;51.230;4.012;2022-12-07T04:04:54;3.83;;;1.00;;
23543;SDS011;11950;51.230;4.012;2022-12-07T04:07:21;2.13;;;1.10;;
23543;SDS011;11950;51.230;4.012;2022-12-07T04:09:47;2.85;;;1.13;;
23543;SDS011;11950;51.230;4.012;2022-12-07T04:12:13;1.17;;;0.93;;
23543;SDS011;11950;51.230;4.012;2022-12-07T04:14:40;2.38;;;0.90;;
23543;SDS011;11950;51.230;4.012;2022-12-07T04:17:06;1.67;;;1.20;;
23543;SDS011;11950;51.230;4.012;2022-12-07T04:19:33;3.08;;;1.00;;
23543;SDS011;11950;51.230;4.012;2022-12-07T04:22:00;2.22;;;1.23;;
23543;SDS011;11950;51.230;4.012;2022-12-07T04:24:28;1.35;;;1.10;;
23543;SDS011;11950;51.230;4.012;2022-12-07T04:26:54;6.88;;;1.20;;
23543;SDS011;11950;51.230;4.012;2022-12-07T04:29:21;1.38;;;1.00;;
23543;SDS011;11950;51.230;4.012;2022-12-07T04:31:48;3.00;;;0.90;;
23543;SDS011;11950;51.230;4.012;2022-12-07T04:34:14;1.20;;;1.00;;
23543;SDS011;11950;51.230;4.012;2022-12-07T04:36:42;3.90;;;1.00;;
23543;SDS011;11950;51.230;4.012;2022-12-07T04:41:49;1.40;;;0.93;;
23543;SDS011;11950;51.230;4.012;2022-12-07T04:44:15;3.65;;;1.10;;
23543;SDS011;11950;51.230;4.012;2022-12-07T04:46:42;2.95;;;1.00;;
23543;SDS011;11950;51.230;4.012;2022-12-07T04:49:09;1.63;;;1.10;;
23543;SDS011;11950;51.230;4.012;2022-12-07T04:51:37;1.83;;;1.17;;
23543;SDS011;11950;51.230;4.012;2022-12-07T04:54:03;2.38;;;1.20;;
23543;SDS011;11950;51.230;4.012;2022-12-07T04:56:30;1.98;;;1.20;;
23543;SDS011;11950;51.230;4.012;2022-12-07T04:58:57;1.95;;;1.10;;
23543;SDS011;11950;51.230;4.012;2022-12-07T05:01:23;3.13;;;1.05;;
23543;SDS011;11950;51.230;4.012;2022-12-07T05:03:49;3.22;;;0.93;;
23543;SDS011;11950;51.230;4.012;2022-12-07T05:06:16;1.88;;;1.00;;
23543;SDS011;11950;51.230;4.012;2022-12-07T05:08:44;4.18;;;1.40;;
23543;SDS011;11950;51.230;4.012;2022-12-07T05:11:11;3.42;;;1.48;;
23543;SDS011;11950;51.230;4.012;2022-12-07T05:13:57;5.32;;;1.30;;
23543;SDS011;11950;51.230;4.012;2022-12-07T05:16:23;4.13;;;1.40;;
23543;SDS011;11950;51.230;4.012;2022-12-07T05:18:50;1.80;;;1.10;;
23543;SDS011;11950;51.230;4.012;2022-12-07T05:21:16;5.32;;;1.50;;
23543;SDS011;11950;51.230;4.012;2022-12-07T05:23:42;5.25;;;1.67;;
23543;SDS011;11950;51.230;4.012;2022-12-07T05:26:09;2.97;;;1.65;;
23543;SDS011;11950;51.230;4.012;2022-12-07T05:28:35;4.70;;;1.63;;
23543;SDS011;11950;51.230;4.012;2022-12-07T05:31:01;1.92;;;1.35;;
23543;SDS011;11950;51.230;4.012;2022-12-07T05:33:28;2.88;;;1.60;;
23543;SDS011;11950;51.230;4.012;2022-12-07T05:35:54;4.15;;;1.40;;
23543;SDS011;11950;51.230;4.012;2022-12-07T05:38:21;2.80;;;1.50;;
23543;SDS011;11950;51.230;4.012;2022-12-07T05:40:47;1.63;;;1.30;;
23543;SDS011;11950;51.230;4.012;2022-12-07T05:43:13;2.90;;;1.30;;
23543;SDS011;11950;51.230;4.012;2022-12-07T05:45:40;2.33;;;1.40;;
23543;SDS011;11950;51.230;4.012;2022-12-07T05:48:06;4.72;;;1.42;;
23543;SDS011;11950;51.230;4.012;2022-12-07T05:50:32;2.60;;;1.60;;
23543;SDS011;11950;51.230;4.012;2022-12-07T05:53:01;2.88;;;1.48;;
23543;SDS011;11950;51.230;4.012;2022-12-07T05:55:28;2.25;;;1.25;;
23543;SDS011;11950;51.230;4.012;2022-12-07T05:57:54;2.88;;;1.35;;
23543;SDS011;11950;51.230;4.012;2022-12-07T06:00:39;2.83;;;1.50;;
23543;SDS011;11950;51.230;4.012;2022-12-07T06:03:05;3.08;;;1.38;;
23543;SDS011;11950;51.230;4.012;2022-12-07T06:05:31;3.75;;;1.23;;
23543;SDS011;11950;51.230;4.012;2022-12-07T06:07:57;1.98;;;1.40;;
23543;SDS011;11950;51.230;4.012;2022-12-07T06:10:23;5.00;;;1.60;;
23543;SDS011;11950;51.230;4.012;2022-12-07T06:12:50;7.72;;;1.77;;
23543;SDS011;11950;51.230;4.012;2022-12-07T06:15:16;5.28;;;1.40;;
23543;SDS011;11950;51.230;4.012;2022-12-07T06:17:42;2.58;;;1.60;;
23543;SDS011;11950;51.230;4.012;2022-12-07T06:20:08;2.42;;;1.40;;
23543;SDS011;11950;51.230;4.012;2022-12-07T06:22:35;3.42;;;1.42;;
23543;SDS011;11950;51.230;4.012;2022-12-07T06:25:01;3.70;;;1.77;;
23543;SDS011;11950;51.230;4.012;2022-12-07T06:27:29;4.90;;;1.65;;
23543;SDS011;11950;51.230;4.012;2022-12-07T06:29:55;2.15;;;1.50;;
23543;SDS011;11950;51.230;4.012;2022-12-07T06:32:22;3.42;;;1.50;;
23543;SDS011;11950;51.230;4.012;2022-12-07T06:34:48;2.75;;;1.40;;
23543;SDS011;11950;51.230;4.012;2022-12-07T06:37:14;2.67;;;1.65;;
23543;SDS011;11950;51.230;4.012;2022-12-07T06:39:40;3.75;;;1.30;;
23543;SDS011;11950;51.230;4.012;2022-12-07T06:42:06;2.03;;;1.67;;
23543;SDS011;11950;51.230;4.012;2022-12-07T06:44:33;2.05;;;1.40;;
23543;SDS011;11950;51.230;4.012;2022-12-07T06:46:59;2.85;;;1.25;;
23543;SDS011;11950;51.230;4.012;2022-12-07T06:49:25;2.72;;;1.10;;
23543;SDS011;11950;51.230;4.012;2022-12-07T06:51:52;3.88;;;1.30;;
23543;SDS011;11950;51.230;4.012;2022-12-07T06:54:18;1.25;;;1.13;;
23543;SDS011;11950;51.230;4.012;2022-12-07T06:56:44;2.28;;;1.20;;
23543;SDS011;11950;51.230;4.012;2022-12-07T06:59:11;2.28;;;1.33;;
23543;SDS011;11950;51.230;4.012;2022-12-07T07:01:37;1.48;;;1.30;;
23543;SDS011;11950;51.230;4.012;2022-12-07T07:04:03;4.40;;;1.20;;
23543;SDS011;11950;51.230;4.012;2022-12-07T07:06:30;4.90;;;1.50;;
23543;SDS011;11950;51.230;4.012;2022-12-07T07:08:56;2.03;;;1.20;;
23543;SDS011;11950;51.230;4.012;2022-12-07T07:11:23;2.42;;;1.42;;
23543;SDS011;11950;51.230;4.012;2022-12-07T07:13:49;4.20;;;1.73;;
23543;SDS011;11950;51.230;4.012;2022-12-07T07:16:15;1.92;;;1.48;;
23543;SDS011;11950;51.230;4.012;2022-12-07T07:18:42;2.70;;;1.35;;
23543;SDS011;11950;51.230;4.012;2022-12-07T07:21:08;3.72;;;1.60;;
23543;SDS011;11950;51.230;4.012;2022-12-07T07:23:34;4.70;;;1.63;;
23543;SDS011;11950;51.230;4.012;2022-12-07T07:26:01;3.08;;;1.95;;
23543;SDS011;11950;51.230;4.012;2022-12-07T07:28:27;2.45;;;1.30;;
23543;SDS011;11950;51.230;4.012;2022-12-07T07:30:53;2.83;;;1.40;;
23543;SDS011;11950;51.230;4.012;2022-12-07T07:33:19;3.70;;;1.50;;
23543;SDS011;11950;51.230;4.012;2022-12-07T07:35:46;3.38;;;1.70;;
23543;SDS011;11950;51.230;4.012;2022-12-07T07:38:12;5.93;;;1.80;;
23543;SDS011;11950;51.230;4.012;2022-12-07T07:40:39;4.10;;;1.70;;
23543;SDS011;11950;51.230;4.012;2022-12-07T07:43:05;2.95;;;1.88;;
23543;SDS011;11950;51.230;4.012;2022-12-07T07:45:31;6.15;;;1.92;;
23543;SDS011;11950;51.230;4.012;2022-12-07T07:47:57;2.88;;;1.70;;
23543;SDS011;11950;51.230;4.012;2022-12-07T07:50:24;6.63;;;1.50;;
23543;SDS011;11950;51.230;4.012;2022-12-07T07:52:50;5.97;;;2.00;;
23543;SDS011;11950;51.230;4.012;2022-12-07T07:55:17;3.03;;;1.55;;
23543;SDS011;11950;51.230;4.012;2022-12-07T07:57:43;6.07;;;1.73;;
23543;SDS011;11950;51.230;4.012;2022-12-07T08:00:11;2.72;;;1.48;;
23543;SDS011;11950;51.230;4.012;2022-12-07T08:02:39;2.00;;;1.40;;
23543;SDS011;11950;51.230;4.012;2022-12-07T08:05:06;3.92;;;1.80;;
23543;SDS011;11950;51.230;4.012;2022-12-07T08:07:33;3.22;;;1.50;;
23543;SDS011;11950;51.230;4.012;2022-12-07T08:09:59;4.35;;;1.45;;
23543;SDS011;11950;51.230;4.012;2022-12-07T08:12:25;2.22;;;1.38;;
23543;SDS011;11950;51.230;4.012;2022-12-07T08:14:52;3.33;;;1.33;;
23543;SDS011;11950;51.230;4.012;2022-12-07T08:17:19;2.17;;;1.70;;
23543;SDS011;11950;51.230;4.012;2022-12-07T08:19:45;3.45;;;1.48;;
23543;SDS011;11950;51.230;4.012;2022-12-07T08:22:11;4.32;;;1.60;;
23543;SDS011;11950;51.230;4.012;2022-12-07T08:24:38;2.45;;;1.20;;
23543;SDS011;11950;51.230;4.012;2022-12-07T08:27:04;3.45;;;1.73;;
23543;SDS011;11950;51.230;4.012;2022-12-07T08:29:30;4.82;;;1.60;;
23543;SDS011;11950;51.230;4.012;2022-12-07T08:32:06;2.20;;;1.38;;
23543;SDS011;11950;51.230;4.012;2022-12-07T08:34:33;1.98;;;1.23;;
23543;SDS011;11950;51.230;4.012;2022-12-07T08:36:59;4.10;;;1.20;;
23543;SDS011;11950;51.230;4.012;2022-12-07T08:39:26;4.70;;;1.30;;
23543;SDS011;11950;51.230;4.012;2022-12-07T08:41:52;3.40;;;1.30;;
23543;SDS011;11950;51.230;4.012;2022-12-07T08:44:18;2.42;;;1.20;;
23543;SDS011;11950;51.230;4.012;2022-12-07T08:46:49;4.45;;;1.38;;
23543;SDS011;11950;51.230;4.012;2022-12-07T08:49:20;4.97;;;1.50;;
23543;SDS011;11950;51.230;4.012;2022-12-07T08:51:50;2.33;;;1.92;;
23543;SDS011;11950;51.230;4.012;2022-12-07T08:54:17;3.08;;;1.40;;
23543;SDS011;11950;51.230;4.012;2022-12-07T08:56:45;5.80;;;1.80;;
23543;SDS011;11950;51.230;4.012;2022-12-07T08:59:13;6.65;;;1.80;;
23543;SDS011;11950;51.230;4.012;2022-12-07T09:01:42;2.70;;;2.05;;
23543;SDS011;11950;51.230;4.012;2022-12-07T09:04:09;3.75;;;1.50;;
23543;SDS011;11950;51.230;4.012;2022-12-07T09:06:35;5.03;;;1.40;;
23543;SDS011;11950;51.230;4.012;2022-12-07T09:09:01;5.28;;;2.25;;
23543;SDS011;11950;51.230;4.012;2022-12-07T09:11:29;6.10;;;3.00;;
23543;SDS011;11950;51.230;4.012;2022-12-07T09:13:55;7.72;;;3.22;;
23543;SDS011;11950;51.230;4.012;2022-12-07T09:16:22;8.07;;;3.08;;
23543;SDS011;11950;51.230;4.012;2022-12-07T09:18:48;4.60;;;2.90;;
23543;SDS011;11950;51.230;4.012;2022-12-07T09:21:14;6.45;;;2.45;;
23543;SDS011;11950;51.230;4.012;2022-12-07T09:23:41;9.38;;;2.85;;
23543;SDS011;11950;51.230;4.012;2022-12-07T09:26:08;8.32;;;3.38;;
23543;SDS011;11950;51.230;4.012;2022-12-07T09:28:34;7.03;;;2.83;;
23543;SDS011;11950;51.230;4.012;2022-12-07T09:31:01;8.05;;;2.95;;
23543;SDS011;11950;51.230;4.012;2022-12-07T09:33:29;4.45;;;3.08;;
23543;SDS011;11950;51.230;4.012;2022-12-07T09:35:55;6.93;;;3.42;;
23543;SDS011;11950;51.230;4.012;2022-12-07T09:38:21;7.60;;;3.90;;
23543;SDS011;11950;51.230;4.012;2022-12-07T09:40:48;8.23;;;3.38;;
23543;SDS011;11950;51.230;4.012;2022-12-07T09:43:15;4.60;;;3.50;;
23543;SDS011;11950;51.230;4.012;2022-12-07T09:45:47;9.20;;;3.70;;
23543;SDS011;11950;51.230;4.012;2022-12-07T09:48:17;8.27;;;4.15;;
23543;SDS011;11950;51.230;4.012;2022-12-07T09:53:49;6.80;;;3.63;;
23543;SDS011;11950;51.230;4.012;2022-12-07T09:56:17;10.18;;;4.05;;
23543;SDS011;11950;51.230;4.012;2022-12-07T09:58:45;11.73;;;4.22;;
23543;SDS011;11950;51.230;4.012;2022-12-07T10:01:13;8.63;;;4.82;;
23543;SDS011;11950;51.230;4.012;2022-12-07T10:03:48;10.88;;;4.13;;
23543;SDS011;11950;51.230;4.012;2022-12-07T10:06:16;8.55;;;4.63;;
23543;SDS011;11950;51.230;4.012;2022-12-07T10:08:43;12.93;;;5.03;;
23543;SDS011;11950;51.230;4.012;2022-12-07T10:11:09;10.80;;;4.75;;
23543;SDS011;11950;51.230;4.012;2022-12-07T10:13:37;8.52;;;4.03;;
23543;SDS011;11950;51.230;4.012;2022-12-07T10:16:06;10.00;;;4.50;;
23543;SDS011;11950;51.230;4.012;2022-12-07T10:18:56;6.93;;;3.38;;
23543;SDS011;11950;51.230;4.012;2022-12-07T10:21:42;12.50;;;4.35;;
23543;SDS011;11950;51.230;4.012;2022-12-07T10:24:24;12.63;;;3.78;;
23543;SDS011;11950;51.230;4.012;2022-12-07T10:26:51;9.95;;;4.03;;
23543;SDS011;11950;51.230;4.012;2022-12-07T10:29:32;12.20;;;3.90;;
23543;SDS011;11950;51.230;4.012;2022-12-07T10:34:31;6.15;;;2.78;;
23543;SDS011;11950;51.230;4.012;2022-12-07T10:42:09;6.22;;;2.30;;
23543;SDS011;11950;51.230;4.012;2022-12-07T10:44:44;7.88;;;2.30;;
23543;SDS011;11950;51.230;4.012;2022-12-07T10:50:17;3.90;;;1.63;;
23543;SDS011;11950;51.230;4.012;2022-12-07T11:01:27;5.25;;;1.88;;
23543;SDS011;11950;51.230;4.012;2022-12-07T11:14:02;5.97;;;1.73;;
23543;SDS011;11950;51.230;4.012;2022-12-07T11:16:59;5.10;;;1.50;;
23543;SDS011;11950;51.230;4.012;2022-12-07T11:22:44;5.25;;;1.45;;
23543;SDS011;11950;51.230;4.012;2022-12-07T11:25:26;3.65;;;1.63;;
23543;SDS011;11950;51.230;4.012;2022-12-07T11:36:17;6.20;;;1.40;;
23543;SDS011;11950;51.230;4.012;2022-12-07T11:38:56;3.92;;;0.80;;
23543;SDS011;11950;51.230;4.012;2022-12-07T11:41:28;3.88;;;0.73;;
23543;SDS011;11950;51.230;4.012;2022-12-07T11:44:08;4.28;;;0.65;;
23543;SDS011;11950;51.230;4.012;2022-12-07T11:58:22;2.97;;;0.80;;
23543;SDS011;11950;51.230;4.012;2022-12-07T12:04:03;3.30;;;1.17;;
23543;SDS011;11950;51.230;4.012;2022-12-07T12:09:17;3.95;;;0.90;;
23543;SDS011;11950;51.230;4.012;2022-12-07T12:14:49;4.25;;;0.70;;
23543;SDS011;11950;51.230;4.012;2022-12-07T12:17:45;1.58;;;0.60;;
23543;SDS011;11950;51.230;4.012;2022-12-07T12:23:43;4.22;;;0.85;;
23543;SDS011;11950;51.230;4.012;2022-12-07T12:26:18;3.20;;;0.73;;
23543;SDS011;11950;51.230;4.012;2022-12-07T12:33:50;2.22;;;0.47;;
23543;SDS011;11950;51.230;4.012;2022-12-07T12:39:10;4.28;;;0.60;;
23543;SDS011;11950;51.230;4.012;2022-12-07T12:54:21;1.60;;;0.38;;
23543;SDS011;11950;51.230;4.012;2022-12-07T12:56:55;2.30;;;0.30;;
23543;SDS011;11950;51.230;4.012;2022-12-07T13:02:31;3.38;;;0.40;;
23543;SDS011;11950;51.230;4.012;2022-12-07T13:15:44;2.83;;;0.40;;
23543;SDS011;11950;51.230;4.012;2022-12-07T13:20:57;1.10;;;0.20;;
23543;SDS011;11950;51.230;4.012;2022-12-07T13:28:54;0.22;;;0.20;;
23543;SDS011;11950;51.230;4.012;2022-12-07T13:34:02;2.17;;;0.30;;
23543;SDS011;11950;51.230;4.012;2022-12-07T13:36:31;1.27;;;0.20;;
23543;SDS011;11950;51.230;4.012;2022-12-07T13:41:59;2.17;;;0.52;;
23543;SDS011;11950;51.230;4.012;2022-12-07T13:44:33;0.90;;;0.40;;
23543;SDS011;11950;51.230;4.012;2022-12-07T13:47:17;1.75;;;0.40;;
23543;SDS011;11950;51.230;4.012;2022-12-07T13:49:49;0.68;;;0.32;;
23543;SDS011;11950;51.230;4.012;2022-12-07T13:57:28;1.77;;;0.40;;
23543;SDS011;11950;51.230;4.012;2022-12-07T14:00:00;1.13;;;0.47;;
23543;SDS011;11950;51.230;4.012;2022-12-07T14:02:31;2.20;;;0.65;;
23543;SDS011;11950;51.230;4.012;2022-12-07T14:05:15;1.50;;;0.50;;
23543;SDS011;11950;51.230;4.012;2022-12-07T14:07:59;5.55;;;0.70;;
23543;SDS011;11950;51.230;4.012;2022-12-07T14:12:54;21.15;;;5.25;;
23543;SDS011;11950;51.230;4.012;2022-12-07T14:15:22;11.05;;;2.33;;
23543;SDS011;11950;51.230;4.012;2022-12-07T14:17:54;4.53;;;1.15;;
23543;SDS011;11950;51.230;4.012;2022-12-07T14:20:37;2.08;;;1.13;;
23543;SDS011;11950;51.230;4.012;2022-12-07T14:23:05;3.72;;;0.75;;
23543;SDS011;11950;51.230;4.012;2022-12-07T14:25:48;3.15;;;0.80;;
23543;SDS011;11950;51.230;4.012;2022-12-07T14:28:25;3.90;;;0.80;;
23543;SDS011;11950;51.230;4.012;2022-12-07T14:30:53;2.95;;;0.85;;
23543;SDS011;11950;51.230;4.012;2022-12-07T14:33:19;3.92;;;0.70;;
23543;SDS011;11950;51.230;4.012;2022-12-07T14:35:47;2.58;;;0.57;;
23543;SDS011;11950;51.230;4.012;2022-12-07T14:38:14;2.35;;;0.40;;
23543;SDS011;11950;51.230;4.012;2022-12-07T14:40:41;2.55;;;0.45;;
23543;SDS011;11950;51.230;4.012;2022-12-07T14:43:11;2.95;;;0.60;;
23543;SDS011;11950;51.230;4.012;2022-12-07T14:45:40;1.88;;;0.40;;
23543;SDS011;11950;51.230;4.012;2022-12-07T14:48:13;1.83;;;0.50;;
23543;SDS011;11950;51.230;4.012;2022-12-07T14:50:44;1.83;;;0.50;;
23543;SDS011;11950;51.230;4.012;2022-12-07T14:53:18;1.63;;;0.40;;
23543;SDS011;11950;51.230;4.012;2022-12-07T14:55:50;3.33;;;0.50;;
23543;SDS011;11950;51.230;4.012;2022-12-07T14:58:17;2.38;;;0.50;;
23543;SDS011;11950;51.230;4.012;2022-12-07T15:00:44;2.78;;;0.50;;
23543;SDS011;11950;51.230;4.012;2022-12-07T15:03:10;0.80;;;0.40;;
23543;SDS011;11950;51.230;4.012;2022-12-07T15:05:38;1.05;;;0.50;;
23543;SDS011;11950;51.230;4.012;2022-12-07T15:08:06;1.77;;;0.52;;
23543;SDS011;11950;51.230;4.012;2022-12-07T15:10:35;2.10;;;0.80;;
23543;SDS011;11950;51.230;4.012;2022-12-07T15:13:04;3.20;;;0.70;;
23543;SDS011;11950;51.230;4.012;2022-12-07T15:15:50;2.05;;;0.50;;
23543;SDS011;11950;51.230;4.012;2022-12-07T15:18:17;2.33;;;0.90;;
23543;SDS011;11950;51.230;4.012;2022-12-07T15:20:45;2.17;;;0.65;;
23543;SDS011;11950;51.230;4.012;2022-12-07T15:23:12;2.92;;;0.70;;
23543;SDS011;11950;51.230;4.012;2022-12-07T15:25:42;2.67;;;0.85;;
23543;SDS011;11950;51.230;4.012;2022-12-07T15:28:10;5.47;;;0.98;;
23543;SDS011;11950;51.230;4.012;2022-12-07T15:30:37;2.38;;;0.70;;
23543;SDS011;11950;51.230;4.012;2022-12-07T15:33:04;2.08;;;0.82;;
23543;SDS011;11950;51.230;4.012;2022-12-07T15:35:30;1.85;;;0.70;;
23543;SDS011;11950;51.230;4.012;2022-12-07T15:37:57;5.53;;;0.80;;
23543;SDS011;11950;51.230;4.012;2022-12-07T15:40:23;3.10;;;0.80;;
23543;SDS011;11950;51.230;4.012;2022-12-07T15:42:50;4.15;;;0.90;;
23543;SDS011;11950;51.230;4.012;2022-12-07T15:45:16;2.47;;;1.00;;
23543;SDS011;11950;51.230;4.012;2022-12-07T15:47:43;4.85;;;1.00;;
23543;SDS011;11950;51.230;4.012;2022-12-07T15:50:14;3.67;;;1.00;;
23543;SDS011;11950;51.230;4.012;2022-12-07T15:52:41;3.05;;;0.80;;
23543;SDS011;11950;51.230;4.012;2022-12-07T15:55:09;3.83;;;0.90;;
23543;SDS011;11950;51.230;4.012;2022-12-07T15:57:36;1.27;;;0.60;;
23543;SDS011;11950;51.230;4.012;2022-12-07T16:00:04;3.72;;;1.15;;
23543;SDS011;11950;51.230;4.012;2022-12-07T16:02:34;2.13;;;0.67;;
23543;SDS011;11950;51.230;4.012;2022-12-07T16:05:02;1.17;;;0.50;;
23543;SDS011;11950;51.230;4.012;2022-12-07T16:07:28;1.83;;;0.60;;
23543;SDS011;11950;51.230;4.012;2022-12-07T16:09:55;3.00;;;0.60;;
23543;SDS011;11950;51.230;4.012;2022-12-07T16:12:21;1.15;;;0.60;;
23543;SDS011;11950;51.230;4.012;2022-12-07T16:14:48;4.00;;;0.65;;
23543;SDS011;11950;51.230;4.012;2022-12-07T16:17:14;3.50;;;0.70;;
23543;SDS011;11950;51.230;4.012;2022-12-07T16:19:40;4.43;;;0.68;;
23543;SDS011;11950;51.230;4.012;2022-12-07T16:22:06;1.15;;;0.60;;
23543;SDS011;11950;51.230;4.012;2022-12-07T16:24:33;2.55;;;0.80;;
23543;SDS011;11950;51.230;4.012;2022-12-07T16:26:59;1.98;;;0.70;;
23543;SDS011;11950;51.230;4.012;2022-12-07T16:29:26;1.98;;;0.80;;
23543;SDS011;11950;51.230;4.012;2022-12-07T16:31:52;2.75;;;0.50;;
23543;SDS011;11950;51.230;4.012;2022-12-07T16:34:18;1.13;;;0.50;;
23543;SDS011;11950;51.230;4.012;2022-12-07T16:36:45;2.85;;;0.60;;
23543;SDS011;11950;51.230;4.012;2022-12-07T16:39:11;2.50;;;0.60;;
23543;SDS011;11950;51.230;4.012;2022-12-07T16:41:38;4.97;;;0.73;;
23543;SDS011;11950;51.230;4.012;2022-12-07T16:44:05;1.40;;;0.60;;
23543;SDS011;11950;51.230;4.012;2022-12-07T16:46:33;1.70;;;0.50;;
23543;SDS011;11950;51.230;4.012;2022-12-07T16:49:01;0.77;;;0.55;;
23543;SDS011;11950;51.230;4.012;2022-12-07T16:51:28;0.85;;;0.60;;
23543;SDS011;11950;51.230;4.012;2022-12-07T16:53:55;1.20;;;0.90;;
23543;SDS011;11950;51.230;4.012;2022-12-07T16:56:21;3.92;;;0.82;;
23543;SDS011;11950;51.230;4.012;2022-12-07T16:58:48;2.88;;;0.80;;
23543;SDS011;11950;51.230;4.012;2022-12-07T17:01:19;2.78;;;0.90;;
23543;SDS011;11950;51.230;4.012;2022-12-07T17:03:48;3.03;;;1.10;;
23543;SDS011;11950;51.230;4.012;2022-12-07T17:06:21;2.17;;;1.02;;
23543;SDS011;11950;51.230;4.012;2022-12-07T17:08:50;4.35;;;1.88;;
23543;SDS011;11950;51.230;4.012;2022-12-07T17:11:21;4.80;;;2.90;;
23543;SDS011;11950;51.230;4.012;2022-12-07T17:13:52;5.13;;;2.88;;
23543;SDS011;11950;51.230;4.012;2022-12-07T17:16:37;6.05;;;3.22;;
23543;SDS011;11950;51.230;4.012;2022-12-07T17:19:05;7.18;;;4.65;;
23543;SDS011;11950;51.230;4.012;2022-12-07T17:21:35;10.75;;;6.32;;
23543;SDS011;11950;51.230;4.012;2022-12-07T17:24:03;12.63;;;6.93;;
23543;SDS011;11950;51.230;4.012;2022-12-07T17:26:32;9.88;;;6.47;;
23543;SDS011;11950;51.230;4.012;2022-12-07T17:28:59;9.57;;;6.22;;
23543;SDS011;11950;51.230;4.012;2022-12-07T17:31:25;7.65;;;6.32;;
23543;SDS011;11950;51.230;4.012;2022-12-07T17:33:52;9.75;;;6.78;;
23543;SDS011;11950;51.230;4.012;2022-12-07T17:36:19;8.38;;;5.70;;
23543;SDS011;11950;51.230;4.012;2022-12-07T17:38:48;11.27;;;6.60;;